sensor_id;sensor_type;location;lat;lon;timestamp;temperature;humidity
25877;DHT22;13692;47.480;19.216;2023-04-15T00:01:03;6.70;99.90
25877;DHT22;13692;47.480;19.216;2023-04-15T00:03:31;6.70;99.90
25877;DHT22;13692;47.480;19.216;2023-04-15T00:06:00;6.70;99.90
25877;DHT22;13692;47.480;19.216;2023-04-15T00:08:28;6.80;99.90
25877;DHT22;13692;47.480;19.216;2023-04-15T00:10:55;6.80;99.90
25877;DHT22;13692;47.480;19.216;2023-04-15T00:13:25;6.80;99.90
25877;DHT22;13692;47.480;19.216;2023-04-15T00:15:51;6.90;99.90
25877;DHT22;13692;47.480;19.216;2023-04-15T00:18:19;6.90;99.90
25877;DHT22;13692;47.480;19.216;2023-04-15T00:20:45;6.90;99.90
25877;DHT22;13692;47.480;19.216;2023-04-15T00:23:12;6.90;99.90
25877;DHT22;13692;47.480;19.216;2023-04-15T00:25:39;7.00;99.90
25877;DHT22;13692;47.480;19.216;2023-04-15T00:28:06;7.00;99.90
25877;DHT22;13692;47.480;19.216;2023-04-15T00:30:34;7.00;99.90
25877;DHT22;13692;47.480;19.216;2023-04-15T00:33:01;7.00;99.90
25877;DHT22;13692;47.480;19.216;2023-04-15T00:35:28;7.10;99.90
25877;DHT22;13692;47.480;19.216;2023-04-15T00:37:58;7.20;99.90
25877;DHT22;13692;47.480;19.216;2023-04-15T00:40:25;7.30;99.90
25877;DHT22;13692;47.480;19.216;2023-04-15T00:42:53;7.30;99.90
25877;DHT22;13692;47.480;19.216;2023-04-15T00:45:20;7.30;99.90
25877;DHT22;13692;47.480;19.216;2023-04-15T00:47:47;7.40;99.90
25877;DHT22;13692;47.480;19.216;2023-04-15T00:50:14;7.40;99.90
25877;DHT22;13692;47.480;19.216;2023-04-15T00:52:41;7.50;99.90
25877;DHT22;13692;47.480;19.216;2023-04-15T00:55:08;7.50;99.90
25877;DHT22;13692;47.480;19.216;2023-04-15T00:57:36;7.40;99.90
25877;DHT22;13692;47.480;19.216;2023-04-15T01:00:04;7.40;99.90
25877;DHT22;13692;47.480;19.216;2023-04-15T01:02:34;7.50;99.90
25877;DHT22;13692;47.480;19.216;2023-04-15T01:05:03;7.40;99.90
25877;DHT22;13692;47.480;19.216;2023-04-15T01:07:30;7.50;99.90
25877;DHT22;13692;47.480;19.216;2023-04-15T01:09:57;7.50;99.90
25877;DHT22;13692;47.480;19.216;2023-04-15T01:12:25;7.50;99.90
25877;DHT22;13692;47.480;19.216;2023-04-15T01:14:54;7.60;99.90
25877;DHT22;13692;47.480;19.216;2023-04-15T01:17:21;7.60;99.90
25877;DHT22;13692;47.480;19.216;2023-04-15T01:19:48;7.70;99.90
25877;DHT22;13692;47.480;19.216;2023-04-15T01:22:16;7.70;99.90
25877;DHT22;13692;47.480;19.216;2023-04-15T01:24:54;7.70;99.90
25877;DHT22;13692;47.480;19.216;2023-04-15T01:27:22;7.70;99.90
25877;DHT22;13692;47.480;19.216;2023-04-15T01:29:50;7.70;99.90
25877;DHT22;13692;47.480;19.216;2023-04-15T01:32:17;7.60;99.90
25877;DHT22;13692;47.480;19.216;2023-04-15T01:34:44;7.60;99.90
25877;DHT22;13692;47.480;19.216;2023-04-15T01:37:12;7.60;99.90
25877;DHT22;13692;47.480;19.216;2023-04-15T01:39:39;7.60;99.90
25877;DHT22;13692;47.480;19.216;2023-04-15T01:42:06;7.60;99.90
25877;DHT22;13692;47.480;19.216;2023-04-15T01:44:34;7.50;99.90
25877;DHT22;13692;47.480;19.216;2023-04-15T01:47:01;7.50;99.90
25877;DHT22;13692;47.480;19.216;2023-04-15T01:49:28;7.50;99.90
25877;DHT22;13692;47.480;19.216;2023-04-15T01:51:55;7.60;99.90
25877;DHT22;13692;47.480;19.216;2023-04-15T01:54:21;7.60;99.90
25877;DHT22;13692;47.480;19.216;2023-04-15T01:56:48;7.60;99.90
25877;DHT22;13692;47.480;19.216;2023-04-15T01:59:15;7.70;99.90
25877;DHT22;13692;47.480;19.216;2023-04-15T02:01:42;7.70;99.90
25877;DHT22;13692;47.480;19.216;2023-04-15T02:04:10;7.80;99.90
25877;DHT22;13692;47.480;19.216;2023-04-15T02:06:42;7.80;99.90
25877;DHT22;13692;47.480;19.216;2023-04-15T02:09:09;7.80;99.90
25877;DHT22;13692;47.480;19.216;2023-04-15T02:11:36;7.80;99.90
25877;DHT22;13692;47.480;19.216;2023-04-15T02:14:04;7.80;99.90
25877;DHT22;13692;47.480;19.216;2023-04-15T02:16:32;7.80;99.90
25877;DHT22;13692;47.480;19.216;2023-04-15T02:18:59;7.80;99.90
25877;DHT22;13692;47.480;19.216;2023-04-15T02:21:27;7.90;99.90
25877;DHT22;13692;47.480;19.216;2023-04-15T02:23:54;7.90;99.90
25877;DHT22;13692;47.480;19.216;2023-04-15T02:26:21;7.90;99.90
25877;DHT22;13692;47.480;19.216;2023-04-15T02:28:48;7.80;99.90
25877;DHT22;13692;47.480;19.216;2023-04-15T02:31:16;7.90;99.90
25877;DHT22;13692;47.480;19.216;2023-04-15T02:33:44;7.90;99.90
25877;DHT22;13692;47.480;19.216;2023-04-15T02:36:11;7.90;99.90
25877;DHT22;13692;47.480;19.216;2023-04-15T02:38:38;7.90;99.90
25877;DHT22;13692;47.480;19.216;2023-04-15T02:41:09;7.80;99.90
25877;DHT22;13692;47.480;19.216;2023-04-15T02:43:36;7.90;99.90
25877;DHT22;13692;47.480;19.216;2023-04-15T02:46:03;7.90;99.90
25877;DHT22;13692;47.480;19.216;2023-04-15T02:48:30;7.90;99.90
25877;DHT22;13692;47.480;19.216;2023-04-15T02:51:13;7.80;99.90
25877;DHT22;13692;47.480;19.216;2023-04-15T02:53:41;7.80;99.90
25877;DHT22;13692;47.480;19.216;2023-04-15T02:56:08;7.80;99.90
25877;DHT22;13692;47.480;19.216;2023-04-15T02:58:35;7.90;99.90
25877;DHT22;13692;47.480;19.216;2023-04-15T03:01:02;7.80;99.90
25877;DHT22;13692;47.480;19.216;2023-04-15T03:03:29;7.80;99.90
25877;DHT22;13692;47.480;19.216;2023-04-15T03:05:56;7.70;99.90
25877;DHT22;13692;47.480;19.216;2023-04-15T03:08:23;7.60;99.90
25877;DHT22;13692;47.480;19.216;2023-04-15T03:10:50;7.60;99.90
25877;DHT22;13692;47.480;19.216;2023-04-15T03:13:18;7.60;99.90
25877;DHT22;13692;47.480;19.216;2023-04-15T03:15:46;7.70;99.90
25877;DHT22;13692;47.480;19.216;2023-04-15T03:18:13;7.70;99.90
25877;DHT22;13692;47.480;19.216;2023-04-15T03:20:41;7.80;99.90
25877;DHT22;13692;47.480;19.216;2023-04-15T03:23:08;7.80;99.90
25877;DHT22;13692;47.480;19.216;2023-04-15T03:25:35;7.80;99.90
25877;DHT22;13692;47.480;19.216;2023-04-15T03:28:03;7.80;99.90
25877;DHT22;13692;47.480;19.216;2023-04-15T03:30:30;7.80;99.90
25877;DHT22;13692;47.480;19.216;2023-04-15T03:32:57;7.70;99.90
25877;DHT22;13692;47.480;19.216;2023-04-15T03:35:24;7.70;99.90
25877;DHT22;13692;47.480;19.216;2023-04-15T03:37:51;7.60;99.90
25877;DHT22;13692;47.480;19.216;2023-04-15T03:40:20;7.60;99.90
25877;DHT22;13692;47.480;19.216;2023-04-15T03:42:48;7.70;99.90
25877;DHT22;13692;47.480;19.216;2023-04-15T03:45:14;7.70;99.90
25877;DHT22;13692;47.480;19.216;2023-04-15T03:47:42;7.80;99.90
25877;DHT22;13692;47.480;19.216;2023-04-15T03:50:09;7.80;99.90
25877;DHT22;13692;47.480;19.216;2023-04-15T03:52:36;7.80;99.90
25877;DHT22;13692;47.480;19.216;2023-04-15T03:55:03;7.80;99.90
25877;DHT22;13692;47.480;19.216;2023-04-15T03:57:30;7.80;99.90
25877;DHT22;13692;47.480;19.216;2023-04-15T03:59:57;7.80;99.90
25877;DHT22;13692;47.480;19.216;2023-04-15T04:02:24;7.80;99.90
25877;DHT22;13692;47.480;19.216;2023-04-15T04:04:52;7.80;99.90
25877;DHT22;13692;47.480;19.216;2023-04-15T04:07:19;7.80;99.90
25877;DHT22;13692;47.480;19.216;2023-04-15T04:09:46;7.80;99.90
25877;DHT22;13692;47.480;19.216;2023-04-15T04:12:13;7.80;99.90
25877;DHT22;13692;47.480;19.216;2023-04-15T04:14:40;7.80;99.90
25877;DHT22;13692;47.480;19.216;2023-04-15T04:17:07;7.80;99.90
25877;DHT22;13692;47.480;19.216;2023-04-15T04:19:35;7.90;99.90
25877;DHT22;13692;47.480;19.216;2023-04-15T04:22:01;7.90;99.90
25877;DHT22;13692;47.480;19.216;2023-04-15T04:24:28;8.00;99.90
25877;DHT22;13692;47.480;19.216;2023-04-15T04:26:55;8.00;99.90
25877;DHT22;13692;47.480;19.216;2023-04-15T04:29:23;8.00;99.90
25877;DHT22;13692;47.480;19.216;2023-04-15T04:31:49;8.10;99.90
25877;DHT22;13692;47.480;19.216;2023-04-15T04:34:16;8.20;99.90
25877;DHT22;13692;47.480;19.216;2023-04-15T04:36:43;8.40;99.90
25877;DHT22;13692;47.480;19.216;2023-04-15T04:39:10;8.60;99.90
25877;DHT22;13692;47.480;19.216;2023-04-15T04:41:37;8.70;99.90
25877;DHT22;13692;47.480;19.216;2023-04-15T04:44:04;8.70;99.90
25877;DHT22;13692;47.480;19.216;2023-04-15T04:46:31;9.10;99.90
25877;DHT22;13692;47.480;19.216;2023-04-15T04:48:58;9.00;99.90
25877;DHT22;13692;47.480;19.216;2023-04-15T04:51:25;9.40;99.90
25877;DHT22;13692;47.480;19.216;2023-04-15T04:53:53;9.80;99.90
25877;DHT22;13692;47.480;19.216;2023-04-15T04:56:20;9.70;99.90
25877;DHT22;13692;47.480;19.216;2023-04-15T04:58:46;9.40;99.90
25877;DHT22;13692;47.480;19.216;2023-04-15T05:01:13;9.10;99.90
25877;DHT22;13692;47.480;19.216;2023-04-15T05:03:40;8.90;99.90
25877;DHT22;13692;47.480;19.216;2023-04-15T05:06:08;8.90;99.90
25877;DHT22;13692;47.480;19.216;2023-04-15T05:08:35;8.90;99.90
25877;DHT22;13692;47.480;19.216;2023-04-15T05:11:05;8.90;99.90
25877;DHT22;13692;47.480;19.216;2023-04-15T05:13:32;8.90;99.90
25877;DHT22;13692;47.480;19.216;2023-04-15T05:15:59;8.90;99.90
25877;DHT22;13692;47.480;19.216;2023-04-15T05:18:27;8.80;99.90
25877;DHT22;13692;47.480;19.216;2023-04-15T05:20:54;8.80;99.90
25877;DHT22;13692;47.480;19.216;2023-04-15T05:23:21;8.80;99.90
25877;DHT22;13692;47.480;19.216;2023-04-15T05:25:48;8.80;99.90
25877;DHT22;13692;47.480;19.216;2023-04-15T05:28:15;8.90;99.90
25877;DHT22;13692;47.480;19.216;2023-04-15T05:30:42;8.80;99.90
25877;DHT22;13692;47.480;19.216;2023-04-15T05:33:09;9.20;99.90
25877;DHT22;13692;47.480;19.216;2023-04-15T05:35:36;9.70;99.90
25877;DHT22;13692;47.480;19.216;2023-04-15T05:38:03;9.80;99.90
25877;DHT22;13692;47.480;19.216;2023-04-15T05:40:30;10.20;99.90
25877;DHT22;13692;47.480;19.216;2023-04-15T05:42:57;10.70;99.90
25877;DHT22;13692;47.480;19.216;2023-04-15T05:45:24;11.10;99.90
25877;DHT22;13692;47.480;19.216;2023-04-15T05:47:51;11.20;99.90
25877;DHT22;13692;47.480;19.216;2023-04-15T05:50:20;10.90;99.90
25877;DHT22;13692;47.480;19.216;2023-04-15T05:52:47;10.40;99.90
25877;DHT22;13692;47.480;19.216;2023-04-15T05:55:13;9.90;99.90
25877;DHT22;13692;47.480;19.216;2023-04-15T05:57:40;9.70;99.90
25877;DHT22;13692;47.480;19.216;2023-04-15T06:00:08;9.70;99.90
25877;DHT22;13692;47.480;19.216;2023-04-15T06:02:35;9.70;99.90
25877;DHT22;13692;47.480;19.216;2023-04-15T06:05:03;9.70;99.90
25877;DHT22;13692;47.480;19.216;2023-04-15T06:07:36;9.60;99.90
25877;DHT22;13692;47.480;19.216;2023-04-15T06:10:03;9.30;99.90
25877;DHT22;13692;47.480;19.216;2023-04-15T06:12:31;9.30;99.90
25877;DHT22;13692;47.480;19.216;2023-04-15T06:14:58;9.30;99.90
25877;DHT22;13692;47.480;19.216;2023-04-15T06:17:26;9.10;99.90
25877;DHT22;13692;47.480;19.216;2023-04-15T06:19:53;9.00;99.90
25877;DHT22;13692;47.480;19.216;2023-04-15T06:22:22;8.90;99.90
25877;DHT22;13692;47.480;19.216;2023-04-15T06:24:49;9.00;99.90
25877;DHT22;13692;47.480;19.216;2023-04-15T06:27:17;9.20;99.90
25877;DHT22;13692;47.480;19.216;2023-04-15T06:29:44;9.40;99.90
25877;DHT22;13692;47.480;19.216;2023-04-15T06:32:11;9.40;99.90
25877;DHT22;13692;47.480;19.216;2023-04-15T06:34:38;9.40;99.90
25877;DHT22;13692;47.480;19.216;2023-04-15T06:37:05;9.40;99.90
25877;DHT22;13692;47.480;19.216;2023-04-15T06:39:32;9.60;99.90
25877;DHT22;13692;47.480;19.216;2023-04-15T06:41:59;9.90;99.90
25877;DHT22;13692;47.480;19.216;2023-04-15T06:44:27;10.30;99.90
25877;DHT22;13692;47.480;19.216;2023-04-15T06:46:54;10.80;99.90
25877;DHT22;13692;47.480;19.216;2023-04-15T06:49:22;10.80;99.90
25877;DHT22;13692;47.480;19.216;2023-04-15T06:51:49;10.90;99.90
25877;DHT22;13692;47.480;19.216;2023-04-15T06:54:17;11.10;99.90
25877;DHT22;13692;47.480;19.216;2023-04-15T06:56:44;11.70;99.90
25877;DHT22;13692;47.480;19.216;2023-04-15T06:59:11;11.60;99.90
25877;DHT22;13692;47.480;19.216;2023-04-15T07:01:39;11.60;99.90
25877;DHT22;13692;47.480;19.216;2023-04-15T07:04:06;12.00;99.90
25877;DHT22;13692;47.480;19.216;2023-04-15T07:06:34;12.40;99.90
25877;DHT22;13692;47.480;19.216;2023-04-15T07:09:01;12.40;99.90
25877;DHT22;13692;47.480;19.216;2023-04-15T07:11:30;12.70;99.90
25877;DHT22;13692;47.480;19.216;2023-04-15T07:13:57;12.80;99.90
25877;DHT22;13692;47.480;19.216;2023-04-15T07:16:24;12.80;99.90
25877;DHT22;13692;47.480;19.216;2023-04-15T07:18:54;13.00;99.90
25877;DHT22;13692;47.480;19.216;2023-04-15T07:21:22;13.80;99.90
25877;DHT22;13692;47.480;19.216;2023-04-15T07:23:49;14.40;99.90
25877;DHT22;13692;47.480;19.216;2023-04-15T07:26:16;14.30;99.90
25877;DHT22;13692;47.480;19.216;2023-04-15T07:28:43;14.60;99.90
25877;DHT22;13692;47.480;19.216;2023-04-15T07:31:12;15.00;99.90
25877;DHT22;13692;47.480;19.216;2023-04-15T07:33:39;15.30;99.90
25877;DHT22;13692;47.480;19.216;2023-04-15T07:36:06;15.50;99.90
25877;DHT22;13692;47.480;19.216;2023-04-15T07:38:33;15.10;99.90
25877;DHT22;13692;47.480;19.216;2023-04-15T07:41:00;14.50;99.90
25877;DHT22;13692;47.480;19.216;2023-04-15T07:43:27;13.90;99.90
25877;DHT22;13692;47.480;19.216;2023-04-15T07:45:54;13.90;99.90
25877;DHT22;13692;47.480;19.216;2023-04-15T07:48:21;14.40;99.90
25877;DHT22;13692;47.480;19.216;2023-04-15T07:50:48;14.90;99.90
25877;DHT22;13692;47.480;19.216;2023-04-15T07:53:15;15.00;99.90
25877;DHT22;13692;47.480;19.216;2023-04-15T07:55:42;15.10;99.90
25877;DHT22;13692;47.480;19.216;2023-04-15T07:58:09;15.80;99.90
25877;DHT22;13692;47.480;19.216;2023-04-15T08:00:36;15.80;99.90
25877;DHT22;13692;47.480;19.216;2023-04-15T08:03:04;15.90;99.90
25877;DHT22;13692;47.480;19.216;2023-04-15T08:05:31;16.40;99.90
25877;DHT22;13692;47.480;19.216;2023-04-15T08:07:58;16.70;99.90
25877;DHT22;13692;47.480;19.216;2023-04-15T08:10:25;17.10;99.90
25877;DHT22;13692;47.480;19.216;2023-04-15T08:12:53;17.30;99.90
25877;DHT22;13692;47.480;19.216;2023-04-15T08:15:20;17.70;99.90
25877;DHT22;13692;47.480;19.216;2023-04-15T08:17:47;17.70;99.90
25877;DHT22;13692;47.480;19.216;2023-04-15T08:20:14;17.70;99.90
25877;DHT22;13692;47.480;19.216;2023-04-15T08:22:41;17.70;99.90
25877;DHT22;13692;47.480;19.216;2023-04-15T08:25:08;17.60;99.90
25877;DHT22;13692;47.480;19.216;2023-04-15T08:27:36;17.60;99.90
25877;DHT22;13692;47.480;19.216;2023-04-15T08:30:03;17.60;99.90
25877;DHT22;13692;47.480;19.216;2023-04-15T08:32:31;17.40;99.90
25877;DHT22;13692;47.480;19.216;2023-04-15T08:34:58;17.40;99.90
25877;DHT22;13692;47.480;19.216;2023-04-15T08:37:24;17.60;99.90
25877;DHT22;13692;47.480;19.216;2023-04-15T08:39:52;17.60;99.90
25877;DHT22;13692;47.480;19.216;2023-04-15T08:42:26;17.60;99.90
25877;DHT22;13692;47.480;19.216;2023-04-15T08:44:59;18.20;99.90
25877;DHT22;13692;47.480;19.216;2023-04-15T08:47:29;18.20;99.90
25877;DHT22;13692;47.480;19.216;2023-04-15T08:50:02;17.30;99.90
25877;DHT22;13692;47.480;19.216;2023-04-15T08:52:30;16.50;99.90
25877;DHT22;13692;47.480;19.216;2023-04-15T08:54:59;15.90;99.90
25877;DHT22;13692;47.480;19.216;2023-04-15T08:57:28;15.10;99.90
25877;DHT22;13692;47.480;19.216;2023-04-15T08:59:55;14.40;99.90
25877;DHT22;13692;47.480;19.216;2023-04-15T09:02:24;14.20;99.90
25877;DHT22;13692;47.480;19.216;2023-04-15T09:04:52;14.10;99.90
25877;DHT22;13692;47.480;19.216;2023-04-15T09:07:19;14.40;99.90
25877;DHT22;13692;47.480;19.216;2023-04-15T09:09:47;14.90;99.90
25877;DHT22;13692;47.480;19.216;2023-04-15T09:12:14;15.90;99.90
25877;DHT22;13692;47.480;19.216;2023-04-15T09:14:45;16.50;99.90
25877;DHT22;13692;47.480;19.216;2023-04-15T09:17:13;16.80;99.90
25877;DHT22;13692;47.480;19.216;2023-04-15T09:19:44;16.80;99.90
25877;DHT22;13692;47.480;19.216;2023-04-15T09:22:11;16.80;99.90
25877;DHT22;13692;47.480;19.216;2023-04-15T09:24:39;16.90;99.90
25877;DHT22;13692;47.480;19.216;2023-04-15T09:27:08;17.10;99.90
25877;DHT22;13692;47.480;19.216;2023-04-15T09:29:35;17.40;99.90
25877;DHT22;13692;47.480;19.216;2023-04-15T09:32:14;17.80;99.90
25877;DHT22;13692;47.480;19.216;2023-04-15T09:34:42;17.60;99.70
25877;DHT22;13692;47.480;19.216;2023-04-15T09:37:09;16.90;99.90
25877;DHT22;13692;47.480;19.216;2023-04-15T09:39:56;16.20;99.90
25877;DHT22;13692;47.480;19.216;2023-04-15T09:42:23;16.00;99.90
25877;DHT22;13692;47.480;19.216;2023-04-15T09:44:52;15.90;99.90
25877;DHT22;13692;47.480;19.216;2023-04-15T09:47:27;15.60;99.90
25877;DHT22;13692;47.480;19.216;2023-04-15T09:49:55;15.40;99.90
25877;DHT22;13692;47.480;19.216;2023-04-15T09:52:23;15.50;99.90
25877;DHT22;13692;47.480;19.216;2023-04-15T09:54:52;15.70;99.90
25877;DHT22;13692;47.480;19.216;2023-04-15T09:57:21;15.70;99.90
25877;DHT22;13692;47.480;19.216;2023-04-15T09:59:50;15.50;99.90
25877;DHT22;13692;47.480;19.216;2023-04-15T10:02:18;15.20;99.90
25877;DHT22;13692;47.480;19.216;2023-04-15T10:04:49;15.30;99.90
25877;DHT22;13692;47.480;19.216;2023-04-15T10:07:19;15.40;99.90
25877;DHT22;13692;47.480;19.216;2023-04-15T10:09:48;15.60;99.90
25877;DHT22;13692;47.480;19.216;2023-04-15T10:12:18;15.50;99.90
25877;DHT22;13692;47.480;19.216;2023-04-15T10:14:57;15.10;99.90
25877;DHT22;13692;47.480;19.216;2023-04-15T10:17:27;14.60;99.90
25877;DHT22;13692;47.480;19.216;2023-04-15T10:20:01;14.40;99.90
25877;DHT22;13692;47.480;19.216;2023-04-15T10:22:31;14.40;99.90
25877;DHT22;13692;47.480;19.216;2023-04-15T10:24:58;14.40;99.90
25877;DHT22;13692;47.480;19.216;2023-04-15T10:27:27;14.20;99.90
25877;DHT22;13692;47.480;19.216;2023-04-15T10:29:56;14.00;99.90
25877;DHT22;13692;47.480;19.216;2023-04-15T10:32:24;14.00;99.90
25877;DHT22;13692;47.480;19.216;2023-04-15T10:34:53;14.00;99.90
25877;DHT22;13692;47.480;19.216;2023-04-15T10:37:22;14.00;99.90
25877;DHT22;13692;47.480;19.216;2023-04-15T10:39:49;14.00;99.90
25877;DHT22;13692;47.480;19.216;2023-04-15T10:42:18;13.90;99.90
25877;DHT22;13692;47.480;19.216;2023-04-15T10:44:50;13.70;99.90
25877;DHT22;13692;47.480;19.216;2023-04-15T10:47:19;13.90;99.90
25877;DHT22;13692;47.480;19.216;2023-04-15T10:49:56;14.20;99.90
25877;DHT22;13692;47.480;19.216;2023-04-15T10:52:26;14.30;99.90
25877;DHT22;13692;47.480;19.216;2023-04-15T10:57:39;14.00;99.90
25877;DHT22;13692;47.480;19.216;2023-04-15T11:00:14;14.20;99.90
25877;DHT22;13692;47.480;19.216;2023-04-15T11:05:10;14.30;99.90
25877;DHT22;13692;47.480;19.216;2023-04-15T11:07:52;14.20;99.90
25877;DHT22;13692;47.480;19.216;2023-04-15T11:12:56;14.40;99.90
25877;DHT22;13692;47.480;19.216;2023-04-15T11:15:43;14.60;99.90
25877;DHT22;13692;47.480;19.216;2023-04-15T11:20:48;14.70;99.90
25877;DHT22;13692;47.480;19.216;2023-04-15T11:23:38;14.40;99.90
25877;DHT22;13692;47.480;19.216;2023-04-15T11:26:07;14.20;99.90
25877;DHT22;13692;47.480;19.216;2023-04-15T11:28:43;14.00;99.90
25877;DHT22;13692;47.480;19.216;2023-04-15T11:31:15;13.90;99.90
25877;DHT22;13692;47.480;19.216;2023-04-15T11:36:12;14.00;99.90
25877;DHT22;13692;47.480;19.216;2023-04-15T11:38:42;14.20;99.90
25877;DHT22;13692;47.480;19.216;2023-04-15T11:41:10;14.30;99.90
25877;DHT22;13692;47.480;19.216;2023-04-15T11:43:37;14.10;99.90
25877;DHT22;13692;47.480;19.216;2023-04-15T11:46:04;14.00;99.90
25877;DHT22;13692;47.480;19.216;2023-04-15T11:48:34;13.80;99.90
25877;DHT22;13692;47.480;19.216;2023-04-15T11:51:05;13.80;99.90
25877;DHT22;13692;47.480;19.216;2023-04-15T11:56:09;13.70;99.90
25877;DHT22;13692;47.480;19.216;2023-04-15T11:58:37;13.90;99.90
25877;DHT22;13692;47.480;19.216;2023-04-15T12:01:05;13.90;99.90
25877;DHT22;13692;47.480;19.216;2023-04-15T12:03:46;13.80;99.90
25877;DHT22;13692;47.480;19.216;2023-04-15T12:06:22;13.60;99.90
25877;DHT22;13692;47.480;19.216;2023-04-15T12:11:43;13.80;99.90
25877;DHT22;13692;47.480;19.216;2023-04-15T12:16:50;13.70;99.90
25877;DHT22;13692;47.480;19.216;2023-04-15T12:19:28;13.60;99.90
25877;DHT22;13692;47.480;19.216;2023-04-15T12:22:01;13.60;99.90
25877;DHT22;13692;47.480;19.216;2023-04-15T12:24:31;13.70;99.90
25877;DHT22;13692;47.480;19.216;2023-04-15T12:27:02;14.00;99.90
25877;DHT22;13692;47.480;19.216;2023-04-15T12:29:30;14.10;99.90
25877;DHT22;13692;47.480;19.216;2023-04-15T12:32:07;14.20;99.90
25877;DHT22;13692;47.480;19.216;2023-04-15T12:34:37;14.10;99.90
25877;DHT22;13692;47.480;19.216;2023-04-15T12:37:06;13.80;99.90
25877;DHT22;13692;47.480;19.216;2023-04-15T12:39:41;13.80;99.90
25877;DHT22;13692;47.480;19.216;2023-04-15T12:42:09;13.70;99.90
25877;DHT22;13692;47.480;19.216;2023-04-15T12:44:37;13.60;99.90
25877;DHT22;13692;47.480;19.216;2023-04-15T12:47:06;13.60;99.90
25877;DHT22;13692;47.480;19.216;2023-04-15T12:49:33;13.50;99.90
25877;DHT22;13692;47.480;19.216;2023-04-15T12:52:01;13.30;99.90
25877;DHT22;13692;47.480;19.216;2023-04-15T12:54:29;13.20;99.90
25877;DHT22;13692;47.480;19.216;2023-04-15T12:56:57;13.30;99.90
25877;DHT22;13692;47.480;19.216;2023-04-15T12:59:24;13.40;99.90
25877;DHT22;13692;47.480;19.216;2023-04-15T13:01:52;13.30;99.90
25877;DHT22;13692;47.480;19.216;2023-04-15T13:04:20;13.30;99.90
25877;DHT22;13692;47.480;19.216;2023-04-15T13:06:47;13.30;99.90
25877;DHT22;13692;47.480;19.216;2023-04-15T13:09:15;13.20;99.90
25877;DHT22;13692;47.480;19.216;2023-04-15T13:11:42;13.30;99.90
25877;DHT22;13692;47.480;19.216;2023-04-15T13:14:09;13.30;99.90
25877;DHT22;13692;47.480;19.216;2023-04-15T13:16:39;13.50;99.90
25877;DHT22;13692;47.480;19.216;2023-04-15T13:19:07;13.80;99.90
25877;DHT22;13692;47.480;19.216;2023-04-15T13:21:34;13.80;99.90
25877;DHT22;13692;47.480;19.216;2023-04-15T13:24:02;13.80;99.90
25877;DHT22;13692;47.480;19.216;2023-04-15T13:26:30;13.70;99.90
25877;DHT22;13692;47.480;19.216;2023-04-15T13:28:58;13.60;99.90
25877;DHT22;13692;47.480;19.216;2023-04-15T13:31:25;13.70;99.90
25877;DHT22;13692;47.480;19.216;2023-04-15T13:33:53;13.60;99.90
25877;DHT22;13692;47.480;19.216;2023-04-15T13:36:20;13.50;99.90
25877;DHT22;13692;47.480;19.216;2023-04-15T13:38:47;13.40;99.90
25877;DHT22;13692;47.480;19.216;2023-04-15T13:41:16;13.40;99.90
25877;DHT22;13692;47.480;19.216;2023-04-15T13:43:43;13.40;99.90
25877;DHT22;13692;47.480;19.216;2023-04-15T13:46:10;13.30;99.90
25877;DHT22;13692;47.480;19.216;2023-04-15T13:48:37;13.40;99.90
25877;DHT22;13692;47.480;19.216;2023-04-15T13:51:04;13.40;99.90
25877;DHT22;13692;47.480;19.216;2023-04-15T13:53:32;13.20;99.90
25877;DHT22;13692;47.480;19.216;2023-04-15T13:56:06;13.10;99.90
25877;DHT22;13692;47.480;19.216;2023-04-15T13:58:35;13.20;99.90
25877;DHT22;13692;47.480;19.216;2023-04-15T14:01:04;13.30;99.90
25877;DHT22;13692;47.480;19.216;2023-04-15T14:03:36;13.30;99.90
25877;DHT22;13692;47.480;19.216;2023-04-15T14:06:04;13.30;99.90
25877;DHT22;13692;47.480;19.216;2023-04-15T14:08:32;13.30;99.90
25877;DHT22;13692;47.480;19.216;2023-04-15T14:10:59;13.10;99.90
25877;DHT22;13692;47.480;19.216;2023-04-15T14:13:27;13.10;99.90
25877;DHT22;13692;47.480;19.216;2023-04-15T14:15:55;13.20;99.90
25877;DHT22;13692;47.480;19.216;2023-04-15T14:18:22;13.20;99.90
25877;DHT22;13692;47.480;19.216;2023-04-15T14:20:49;13.20;99.90
25877;DHT22;13692;47.480;19.216;2023-04-15T14:23:16;13.20;99.90
25877;DHT22;13692;47.480;19.216;2023-04-15T14:25:43;13.20;99.90
25877;DHT22;13692;47.480;19.216;2023-04-15T14:28:13;13.10;99.90
25877;DHT22;13692;47.480;19.216;2023-04-15T14:30:41;12.90;99.90
25877;DHT22;13692;47.480;19.216;2023-04-15T14:33:08;13.00;99.90
25877;DHT22;13692;47.480;19.216;2023-04-15T14:35:35;13.00;99.90
25877;DHT22;13692;47.480;19.216;2023-04-15T14:38:04;13.00;99.90
25877;DHT22;13692;47.480;19.216;2023-04-15T14:40:32;13.10;99.90
25877;DHT22;13692;47.480;19.216;2023-04-15T14:42:59;13.10;99.90
25877;DHT22;13692;47.480;19.216;2023-04-15T14:45:29;13.10;99.90
25877;DHT22;13692;47.480;19.216;2023-04-15T14:47:56;13.00;99.90
25877;DHT22;13692;47.480;19.216;2023-04-15T14:50:23;12.90;99.90
25877;DHT22;13692;47.480;19.216;2023-04-15T14:52:50;12.80;99.90
25877;DHT22;13692;47.480;19.216;2023-04-15T14:55:17;12.80;99.90
25877;DHT22;13692;47.480;19.216;2023-04-15T14:57:44;12.80;99.90
25877;DHT22;13692;47.480;19.216;2023-04-15T15:00:11;12.90;99.90
25877;DHT22;13692;47.480;19.216;2023-04-15T15:02:42;13.00;99.90
25877;DHT22;13692;47.480;19.216;2023-04-15T15:05:10;13.00;99.90
25877;DHT22;13692;47.480;19.216;2023-04-15T15:07:38;13.10;99.90
25877;DHT22;13692;47.480;19.216;2023-04-15T15:10:07;13.10;99.90
25877;DHT22;13692;47.480;19.216;2023-04-15T15:12:34;13.00;99.90
25877;DHT22;13692;47.480;19.216;2023-04-15T15:15:03;13.00;99.90
25877;DHT22;13692;47.480;19.216;2023-04-15T15:17:45;13.10;99.90
25877;DHT22;13692;47.480;19.216;2023-04-15T15:20:12;13.10;99.90
25877;DHT22;13692;47.480;19.216;2023-04-15T15:22:39;13.10;99.90
25877;DHT22;13692;47.480;19.216;2023-04-15T15:25:06;13.20;99.90
25877;DHT22;13692;47.480;19.216;2023-04-15T15:27:34;13.20;99.90
25877;DHT22;13692;47.480;19.216;2023-04-15T15:30:04;13.10;99.90
25877;DHT22;13692;47.480;19.216;2023-04-15T15:32:32;13.10;99.90
25877;DHT22;13692;47.480;19.216;2023-04-15T15:34:59;13.10;99.90
25877;DHT22;13692;47.480;19.216;2023-04-15T15:37:26;13.00;99.90
25877;DHT22;13692;47.480;19.216;2023-04-15T15:39:53;12.80;99.90
25877;DHT22;13692;47.480;19.216;2023-04-15T15:42:21;12.60;99.90
25877;DHT22;13692;47.480;19.216;2023-04-15T15:44:49;12.60;99.90
25877;DHT22;13692;47.480;19.216;2023-04-15T15:47:19;12.60;99.90
25877;DHT22;13692;47.480;19.216;2023-04-15T15:49:47;12.60;99.90